createdAt,value
2023-03-17T00:00:46.871Z,5.32
2023-03-17T00:01:46.831Z,5.30
2023-03-17T00:02:46.894Z,5.30
2023-03-17T00:03:46.851Z,5.29
2023-03-17T00:04:46.805Z,5.27
2023-03-17T00:05:46.782Z,5.24
2023-03-17T00:06:46.778Z,5.27
2023-03-17T00:07:46.756Z,5.29
2023-03-17T00:08:46.760Z,5.29
2023-03-17T00:09:46.739Z,5.29
2023-03-17T00:10:46.721Z,5.26
2023-03-17T00:11:46.733Z,5.26
2023-03-17T00:12:46.712Z,5.27
2023-03-17T00:13:46.698Z,5.27
2023-03-17T00:14:46.688Z,5.26
2023-03-17T00:15:46.702Z,5.26
2023-03-17T00:16:46.672Z,5.23
2023-03-17T00:17:46.709Z,5.26
2023-03-17T00:18:46.652Z,5.29
2023-03-17T00:19:46.638Z,5.29
2023-03-17T00:20:46.633Z,5.30
2023-03-17T00:21:46.620Z,5.29
2023-03-17T00:22:46.631Z,5.29
2023-03-17T00:23:46.593Z,5.29
2023-03-17T00:24:46.593Z,5.26
2023-03-17T00:25:46.578Z,5.24
2023-03-17T00:26:46.574Z,5.24
2023-03-17T00:27:46.587Z,5.23
2023-03-17T00:28:46.558Z,5.23
2023-03-17T00:29:46.539Z,5.20
2023-03-17T00:30:46.531Z,5.22
2023-03-17T00:31:46.517Z,5.20
2023-03-17T00:32:46.554Z,5.20
2023-03-17T00:33:46.554Z,5.17
2023-03-17T00:34:46.485Z,5.17
2023-03-17T00:35:46.628Z,5.14
2023-03-17T00:36:46.490Z,5.14
2023-03-17T00:37:46.463Z,5.09
2023-03-17T00:38:46.453Z,5.09
2023-03-17T00:39:46.441Z,5.06
2023-03-17T00:40:50.813Z,5.05
2023-03-17T00:41:51.067Z,5.04
2023-03-17T00:42:46.411Z,5.05
2023-03-17T00:43:46.426Z,5.08
2023-03-17T00:44:46.409Z,5.11
2023-03-17T00:45:46.393Z,5.11
2023-03-17T00:46:46.675Z,5.12
2023-03-17T00:47:46.354Z,5.09
2023-03-17T00:48:46.353Z,5.11
2023-03-17T00:49:46.335Z,5.11
2023-03-17T00:50:46.331Z,5.11
2023-03-17T00:51:46.315Z,5.11
2023-03-17T00:52:46.385Z,5.14
2023-03-17T00:53:46.306Z,5.17
2023-03-17T00:54:46.300Z,5.19
2023-03-17T00:55:46.284Z,5.17
2023-03-17T00:56:46.274Z,5.19
2023-03-17T00:57:46.282Z,5.17
2023-03-17T00:58:46.307Z,5.15
2023-03-17T00:59:46.242Z,5.17
2023-03-17T01:00:46.282Z,5.19
2023-03-17T01:01:46.299Z,5.22
2023-03-17T01:02:46.228Z,5.26
2023-03-17T01:03:46.216Z,5.27
2023-03-17T01:04:52.915Z,5.27
2023-03-17T01:05:46.203Z,5.30
2023-03-17T01:06:46.173Z,5.27
2023-03-17T01:07:46.168Z,5.27
2023-03-17T01:08:46.160Z,5.26
2023-03-17T01:09:46.153Z,5.29
2023-03-17T01:10:46.144Z,5.32
2023-03-17T01:11:46.133Z,5.33
2023-03-17T01:12:46.136Z,5.33
2023-03-17T01:13:46.113Z,5.35
2023-03-17T01:14:46.107Z,5.38
2023-03-17T01:15:46.094Z,5.42
2023-03-17T01:16:46.107Z,5.40
2023-03-17T01:17:46.075Z,5.40
2023-03-17T01:18:46.111Z,5.37
2023-03-17T01:19:46.039Z,5.40
2023-03-17T01:20:46.052Z,5.41
2023-03-17T01:21:46.024Z,5.44
2023-03-17T01:22:46.011Z,5.41
2023-03-17T01:23:46.009Z,5.41
2023-03-17T01:24:45.996Z,5.41
2023-03-17T01:25:45.985Z,5.40
2023-03-17T01:26:45.988Z,5.37
2023-03-17T01:27:45.970Z,5.33
2023-03-17T01:28:45.958Z,5.30
2023-03-17T01:29:45.972Z,5.29
2023-03-17T01:30:45.932Z,5.26
2023-03-17T01:31:46.028Z,5.24
2023-03-17T01:32:45.922Z,5.24
2023-03-17T01:33:45.915Z,5.22
2023-03-17T01:34:45.894Z,5.19
2023-03-17T01:35:46.062Z,5.19
2023-03-17T01:36:45.876Z,5.17
2023-03-17T01:37:45.874Z,5.17
2023-03-17T01:38:45.849Z,5.15
2023-03-17T01:39:45.849Z,5.12
2023-03-17T01:40:45.829Z,5.12
2023-03-17T01:41:45.860Z,5.12
2023-03-17T01:42:45.820Z,5.12
2023-03-17T01:43:45.807Z,5.12
2023-03-17T01:44:45.834Z,5.14
2023-03-17T01:45:45.854Z,5.14
2023-03-17T01:46:45.782Z,5.14
2023-03-17T01:47:45.765Z,5.11
2023-03-17T01:48:45.765Z,5.11
2023-03-17T01:49:45.743Z,5.17
2023-03-17T01:50:45.999Z,5.22
2023-03-17T01:51:45.756Z,5.23
2023-03-17T01:52:45.728Z,5.26
2023-03-17T01:53:45.709Z,5.29
2023-03-17T01:54:45.700Z,5.33
2023-03-17T01:55:45.692Z,5.37
2023-03-17T01:56:45.674Z,5.37
2023-03-17T01:57:45.679Z,5.37
2023-03-17T01:58:45.657Z,5.38
2023-03-17T01:59:45.652Z,5.37
2023-03-17T02:00:45.671Z,5.35
2023-03-17T02:01:45.627Z,5.35
2023-03-17T02:02:45.644Z,5.37
2023-03-17T02:03:45.745Z,5.33
2023-03-17T02:04:45.598Z,5.37
2023-03-17T02:05:45.585Z,5.38
2023-03-17T02:06:57.364Z,5.40
2023-03-17T02:07:45.593Z,5.37
2023-03-17T02:08:45.592Z,5.40
2023-03-17T02:09:45.552Z,5.42
2023-03-17T02:10:45.543Z,5.40
2023-03-17T02:11:45.537Z,5.41
2023-03-17T02:12:45.552Z,5.42
2023-03-17T02:13:45.525Z,5.41
2023-03-17T02:14:45.498Z,5.42
2023-03-17T02:15:45.508Z,5.47
2023-03-17T02:16:45.548Z,5.45
2023-03-17T02:17:45.475Z,5.45
2023-03-17T02:18:45.496Z,5.45
2023-03-17T02:19:45.452Z,5.41
2023-03-17T02:20:45.451Z,5.40
2023-03-17T02:21:45.438Z,5.37
2023-03-17T02:22:45.433Z,5.38
2023-03-17T02:23:45.431Z,5.41
2023-03-17T02:24:45.406Z,5.41
2023-03-17T02:25:45.441Z,5.42
2023-03-17T02:26:45.386Z,5.41
2023-03-17T02:27:45.370Z,5.44
2023-03-17T02:28:45.360Z,5.42
2023-03-17T02:29:45.362Z,5.42
2023-03-17T02:30:45.383Z,5.42
2023-03-17T02:31:45.353Z,5.42
2023-03-17T02:32:45.360Z,5.42
2023-03-17T02:33:45.306Z,5.40
2023-03-17T02:34:45.323Z,5.40
2023-03-17T02:35:45.318Z,5.41
2023-03-17T02:36:45.322Z,5.41
2023-03-17T02:37:45.285Z,5.44
2023-03-17T02:38:45.302Z,5.44
2023-03-17T02:39:45.252Z,5.47
2023-03-17T02:40:45.261Z,5.49
2023-03-17T02:41:45.236Z,5.51
2023-03-17T02:42:45.234Z,5.52
2023-03-17T02:43:45.214Z,5.56
2023-03-17T02:44:45.234Z,5.58
2023-03-17T02:45:45.252Z,5.56
2023-03-17T02:46:45.194Z,5.56
2023-03-17T02:47:45.179Z,5.55
2023-03-17T02:48:45.170Z,5.55
2023-03-17T02:49:45.162Z,5.55
2023-03-17T02:50:45.152Z,5.56
2023-03-17T02:51:45.183Z,5.56
2023-03-17T02:52:45.140Z,5.56
2023-03-17T02:53:45.124Z,5.55
2023-03-17T02:54:45.113Z,5.55
2023-03-17T02:55:45.123Z,5.55
2023-03-17T02:56:45.091Z,5.55
2023-03-17T02:57:45.103Z,5.59
2023-03-17T02:58:45.076Z,5.60
2023-03-17T02:59:45.070Z,5.63
2023-03-17T03:00:45.069Z,5.62
2023-03-17T03:01:45.152Z,5.63
2023-03-17T03:02:45.113Z,5.63
2023-03-17T03:03:45.032Z,5.63
2023-03-17T03:04:45.007Z,5.59
2023-03-17T03:05:45.006Z,5.59
2023-03-17T03:06:45.062Z,5.59
2023-03-17T03:07:45.002Z,5.59
2023-03-17T03:08:44.974Z,5.59
2023-03-17T03:09:44.963Z,5.58
2023-03-17T03:10:44.958Z,5.52
2023-03-17T03:11:44.946Z,5.52
2023-03-17T03:12:44.941Z,5.51
2023-03-17T03:13:44.945Z,5.48
2023-03-17T03:14:44.944Z,5.47
2023-03-17T03:15:44.931Z,5.45
2023-03-17T03:16:44.905Z,5.44
2023-03-17T03:17:44.894Z,5.44
2023-03-17T03:18:44.887Z,5.40
2023-03-17T03:19:44.897Z,5.40
2023-03-17T03:20:44.851Z,5.40
2023-03-17T03:21:44.845Z,5.41
2023-03-17T03:22:44.838Z,5.41
2023-03-17T03:23:44.825Z,5.44
2023-03-17T03:24:44.833Z,5.44
2023-03-17T03:25:44.807Z,5.42
2023-03-17T03:26:44.793Z,5.40
2023-03-17T03:27:44.798Z,5.40
2023-03-17T03:28:44.772Z,5.37
2023-03-17T03:29:44.762Z,5.35
2023-03-17T03:30:44.883Z,5.33
2023-03-17T03:31:44.749Z,5.33
2023-03-17T03:32:44.743Z,5.30
2023-03-17T03:33:44.728Z,5.32
2023-03-17T03:34:44.717Z,5.30
2023-03-17T03:35:44.785Z,5.27
2023-03-17T03:36:44.717Z,5.27
2023-03-17T03:37:44.711Z,5.27
2023-03-17T03:38:44.676Z,5.27
2023-03-17T03:39:44.674Z,5.27
2023-03-17T03:40:44.667Z,5.23
2023-03-17T03:41:44.669Z,5.22
2023-03-17T03:42:44.689Z,5.17
2023-03-17T03:43:44.623Z,5.17
2023-03-17T03:44:44.620Z,5.12
2023-03-17T03:45:44.603Z,5.08
2023-03-17T03:46:44.688Z,5.06
2023-03-17T03:47:44.585Z,5.04
2023-03-17T03:48:44.584Z,5.01
2023-03-17T03:49:44.565Z,4.99
2023-03-17T03:50:44.556Z,4.96
2023-03-17T03:51:44.539Z,4.93
2023-03-17T03:52:44.556Z,4.88
2023-03-17T03:53:44.522Z,4.84
2023-03-17T03:54:44.550Z,4.79
2023-03-17T03:55:44.512Z,4.71
2023-03-17T03:56:44.492Z,4.65
2023-03-17T03:57:44.488Z,4.62
2023-03-17T03:58:44.470Z,4.59
2023-03-17T03:59:44.481Z,4.53
2023-03-17T04:00:44.474Z,4.47
2023-03-17T04:01:44.448Z,4.47
2023-03-17T04:02:44.492Z,4.42
2023-03-17T04:03:44.420Z,4.35
2023-03-17T04:04:44.453Z,4.34
2023-03-17T04:05:44.397Z,4.32
2023-03-17T04:06:44.420Z,4.28
2023-03-17T04:07:44.414Z,4.26
2023-03-17T04:08:44.402Z,4.24
2023-03-17T04:09:44.360Z,4.21
2023-03-17T04:10:44.359Z,4.17
2023-03-17T04:11:44.368Z,4.14
2023-03-17T04:12:44.354Z,4.10
2023-03-17T04:13:44.336Z,4.06
2023-03-17T04:14:44.314Z,4.04
2023-03-17T04:15:44.303Z,3.99
2023-03-17T04:16:44.307Z,3.96
2023-03-17T04:17:44.291Z,3.95
2023-03-17T04:18:44.317Z,3.92
2023-03-17T04:19:44.282Z,3.90
2023-03-17T04:20:44.252Z,3.90
2023-03-17T04:21:44.243Z,3.89
2023-03-17T04:22:44.268Z,3.88
2023-03-17T04:23:44.250Z,3.89
2023-03-17T04:24:44.219Z,3.88
2023-03-17T04:25:44.196Z,3.84
2023-03-17T04:26:44.190Z,3.82
2023-03-17T04:27:44.182Z,3.82
2023-03-17T04:28:44.188Z,3.81
2023-03-17T04:29:44.167Z,3.82
2023-03-17T04:30:44.155Z,3.81
2023-03-17T04:31:44.191Z,3.78
2023-03-17T04:32:44.201Z,3.78
2023-03-17T04:33:44.133Z,3.78
2023-03-17T04:34:44.130Z,3.75
2023-03-17T04:35:44.186Z,3.75
2023-03-17T04:36:44.084Z,3.74
2023-03-17T04:37:44.125Z,3.74
2023-03-17T04:38:44.079Z,3.74
2023-03-17T04:39:44.063Z,3.71
2023-03-17T04:40:44.060Z,3.70
2023-03-17T04:41:44.042Z,3.67
2023-03-17T04:42:44.040Z,3.62
2023-03-17T04:43:44.039Z,3.59
2023-03-17T04:44:44.025Z,3.56
2023-03-17T04:45:44.026Z,3.52
2023-03-17T04:46:43.992Z,3.50
2023-03-17T04:47:43.986Z,3.45
2023-03-17T04:48:43.982Z,3.45
2023-03-17T04:49:43.962Z,3.41
2023-03-17T04:50:43.962Z,3.44
2023-03-17T04:51:43.951Z,3.44
2023-03-17T04:52:43.937Z,3.42
2023-03-17T04:53:43.933Z,3.44
2023-03-17T04:54:43.912Z,3.42
2023-03-17T04:55:43.891Z,3.42
2023-03-17T04:56:43.890Z,3.41
2023-03-17T04:57:43.890Z,3.39
2023-03-17T04:58:43.892Z,3.37
2023-03-17T04:59:43.897Z,3.35
2023-03-17T05:00:43.882Z,3.35
2023-03-17T05:01:43.833Z,3.34
2023-03-17T05:02:43.829Z,3.34
2023-03-17T05:03:43.811Z,3.31
2023-03-17T05:04:43.800Z,3.28
2023-03-17T05:05:43.815Z,3.25
2023-03-17T05:06:43.780Z,3.25
2023-03-17T05:07:43.782Z,3.23
2023-03-17T05:08:43.790Z,3.25
2023-03-17T05:09:43.769Z,3.22
2023-03-17T05:10:43.780Z,3.19
2023-03-17T05:11:43.729Z,3.19
2023-03-17T05:12:43.681Z,3.16
2023-03-17T05:13:43.666Z,3.16
2023-03-17T05:14:43.660Z,3.17
2023-03-17T05:15:43.638Z,3.16
2023-03-17T05:16:43.675Z,3.16
2023-03-17T05:17:43.685Z,3.15
2023-03-17T05:18:43.643Z,3.12
2023-03-17T05:19:43.592Z,3.10
2023-03-17T05:20:43.588Z,3.12
2023-03-17T05:21:43.605Z,3.08
2023-03-17T05:22:43.566Z,3.07
2023-03-17T05:23:43.568Z,3.07
2023-03-17T05:24:43.568Z,3.04
2023-03-17T05:25:43.550Z,3.04
2023-03-17T05:26:43.546Z,3.02
2023-03-17T05:27:43.518Z,3.04
2023-03-17T05:28:43.506Z,3.02
2023-03-17T05:29:43.486Z,3.02
2023-03-17T05:30:43.513Z,3.02
2023-03-17T05:31:43.487Z,3.04
2023-03-17T05:32:43.527Z,3.02
2023-03-17T05:33:43.463Z,3.04
2023-03-17T05:34:43.444Z,3.02
2023-03-17T05:35:43.511Z,3.01
2023-03-17T05:36:43.455Z,3.02
2023-03-17T05:37:43.405Z,3.01
2023-03-17T05:38:43.467Z,2.97
2023-03-17T05:39:43.385Z,2.97
2023-03-17T05:40:43.411Z,2.95
2023-03-17T05:41:43.381Z,2.87
2023-03-17T05:42:43.360Z,2.86
2023-03-17T05:43:43.362Z,2.81
2023-03-17T05:44:43.346Z,2.77
2023-03-17T05:45:43.422Z,2.76
2023-03-17T05:46:43.345Z,2.71
2023-03-17T05:47:43.324Z,2.73
2023-03-17T05:48:43.298Z,2.76
2023-03-17T05:49:43.295Z,2.74
2023-03-17T05:50:43.277Z,2.76
2023-03-17T05:51:43.271Z,2.77
2023-03-17T05:52:43.301Z,2.77
2023-03-17T05:53:43.258Z,2.79
2023-03-17T05:54:43.238Z,2.79
2023-03-17T05:55:43.224Z,2.80
2023-03-17T05:56:43.214Z,2.80
2023-03-17T05:57:43.217Z,2.83
2023-03-17T05:58:43.200Z,2.86
2023-03-17T05:59:43.202Z,2.86
2023-03-17T06:00:43.174Z,2.86
2023-03-17T06:01:43.160Z,2.89
2023-03-17T06:02:43.241Z,2.90
2023-03-17T06:03:43.232Z,2.94
2023-03-17T06:04:43.141Z,2.97
2023-03-17T06:05:43.134Z,3.08
2023-03-17T06:06:43.115Z,3.20
2023-03-17T06:07:52.831Z,3.35
2023-03-17T06:08:43.118Z,3.54
2023-03-17T06:09:43.084Z,3.67
2023-03-17T06:10:43.118Z,3.80
2023-03-17T06:11:43.070Z,3.96
2023-03-17T06:12:43.069Z,4.11
2023-03-17T06:13:43.044Z,4.24
2023-03-17T06:14:43.036Z,4.36
2023-03-17T06:15:43.128Z,4.39
2023-03-17T06:16:43.027Z,4.43
2023-03-17T06:17:43.026Z,4.47
2023-03-17T06:18:43.013Z,4.53
2023-03-17T06:19:42.989Z,4.57
2023-03-17T06:20:42.971Z,4.62
2023-03-17T06:21:42.979Z,4.71
2023-03-17T06:23:00.414Z,4.75
2023-03-17T06:23:42.967Z,4.80
2023-03-17T06:24:42.925Z,4.87
2023-03-17T06:25:42.954Z,4.90
2023-03-17T06:26:42.942Z,4.90
2023-03-17T06:27:42.915Z,4.93
2023-03-17T06:28:42.913Z,4.97
2023-03-17T06:29:42.883Z,5.04
2023-03-17T06:30:42.889Z,5.08
2023-03-17T06:31:42.888Z,5.09
2023-03-17T06:32:42.917Z,5.11
2023-03-17T06:33:42.841Z,5.12
2023-03-17T06:34:42.827Z,5.15
2023-03-17T06:35:42.921Z,5.19
2023-03-17T06:36:42.807Z,5.22
2023-03-17T06:37:42.798Z,5.27
2023-03-17T06:38:42.831Z,5.30
2023-03-17T06:39:42.787Z,5.35
2023-03-17T06:40:42.785Z,5.40
2023-03-17T06:41:42.793Z,5.44
2023-03-17T06:42:42.764Z,5.45
2023-03-17T06:43:42.874Z,5.48
2023-03-17T06:44:42.745Z,5.51
2023-03-17T06:45:42.744Z,5.59
2023-03-17T06:46:42.785Z,5.66
2023-03-17T06:47:42.701Z,5.69
2023-03-17T06:48:42.693Z,5.67
2023-03-17T06:49:42.680Z,5.73
2023-03-17T06:50:42.696Z,5.80
2023-03-17T06:51:42.690Z,5.83
2023-03-17T06:52:43.347Z,5.83
2023-03-17T06:53:42.653Z,5.85
2023-03-17T06:54:42.659Z,5.87
2023-03-17T06:55:42.618Z,5.90
2023-03-17T06:56:42.615Z,5.92
2023-03-17T06:57:42.643Z,5.90
2023-03-17T06:58:42.595Z,5.92
2023-03-17T06:59:42.615Z,5.93
2023-03-17T07:00:42.595Z,5.92
2023-03-17T07:01:42.677Z,5.93
2023-03-17T07:02:42.552Z,5.95
2023-03-17T07:03:42.547Z,5.90
2023-03-17T07:04:42.579Z,5.88
2023-03-17T07:05:42.554Z,5.85
2023-03-17T07:06:42.552Z,5.87
2023-03-17T07:07:42.530Z,5.87
2023-03-17T07:08:42.498Z,5.87
2023-03-17T07:09:42.485Z,5.87
2023-03-17T07:10:42.481Z,5.83
2023-03-17T07:11:42.469Z,5.83
2023-03-17T07:12:42.469Z,5.84
2023-03-17T07:13:42.454Z,5.83
2023-03-17T07:14:42.462Z,5.81
2023-03-17T07:15:42.451Z,5.81
2023-03-17T07:16:42.544Z,5.80
2023-03-17T07:17:42.427Z,5.80
2023-03-17T07:18:42.396Z,5.80
2023-03-17T07:19:42.426Z,5.81
2023-03-17T07:20:42.395Z,5.81
2023-03-17T07:21:42.385Z,5.84
2023-03-17T07:22:42.365Z,5.87
2023-03-17T07:23:42.409Z,5.93
2023-03-17T07:24:42.362Z,5.96
2023-03-17T07:25:42.353Z,5.98
2023-03-17T07:26:42.384Z,5.99
2023-03-17T07:27:42.326Z,6.02
2023-03-17T07:28:42.306Z,6.16
2023-03-17T07:29:42.291Z,6.25
2023-03-17T07:30:42.281Z,6.27
2023-03-17T07:31:42.416Z,6.28
2023-03-17T07:32:42.305Z,6.32
2023-03-17T07:33:42.274Z,6.32
2023-03-17T07:34:42.251Z,6.30
2023-03-17T07:35:42.258Z,6.32
2023-03-17T07:36:42.227Z,6.32
2023-03-17T07:37:42.254Z,6.35
2023-03-17T07:38:42.207Z,6.35
2023-03-17T07:39:42.201Z,6.38
2023-03-17T07:40:42.178Z,6.42
2023-03-17T07:41:42.165Z,6.46
2023-03-17T07:42:42.191Z,6.46
2023-03-17T07:43:42.151Z,6.48
2023-03-17T07:44:42.136Z,6.46
2023-03-17T07:45:42.157Z,6.48
2023-03-17T07:46:42.121Z,6.46
2023-03-17T07:47:42.100Z,6.45
2023-03-17T07:48:42.177Z,6.48
2023-03-17T07:49:42.726Z,6.50
2023-03-17T07:50:42.104Z,6.53
2023-03-17T07:51:42.078Z,6.53
2023-03-17T07:52:42.069Z,6.54
2023-03-17T07:53:42.060Z,6.60
2023-03-17T07:54:43.128Z,6.60
2023-03-17T07:55:42.028Z,6.61
2023-03-17T07:56:42.049Z,6.64
2023-03-17T07:57:42.105Z,6.63
2023-03-17T07:58:42.040Z,6.63
2023-03-17T07:59:41.981Z,6.63
2023-03-17T08:00:41.977Z,6.68
2023-03-17T08:01:42.018Z,6.73
2023-03-17T08:02:42.001Z,6.73
2023-03-17T08:03:42.145Z,6.76
2023-03-17T08:04:41.952Z,6.75
2023-03-17T08:05:41.946Z,6.73
2023-03-17T08:06:41.914Z,6.78
2023-03-17T08:07:41.917Z,6.82
2023-03-17T08:08:41.906Z,6.86
2023-03-17T08:09:41.885Z,6.91
2023-03-17T08:10:41.933Z,6.99
2023-03-17T08:11:41.867Z,7.07
2023-03-17T08:12:41.852Z,7.08
2023-03-17T08:13:41.862Z,7.11
2023-03-17T08:14:41.825Z,7.09
2023-03-17T08:15:41.836Z,7.08
2023-03-17T08:16:41.952Z,7.09
2023-03-17T08:17:41.800Z,7.11
2023-03-17T08:18:41.802Z,7.15
2023-03-17T08:19:41.799Z,7.30
2023-03-17T08:20:41.796Z,7.32
2023-03-17T08:21:41.796Z,7.36
2023-03-17T08:22:41.766Z,7.41
2023-03-17T08:23:41.768Z,7.42
2023-03-17T08:24:41.731Z,7.45
2023-03-17T08:25:41.711Z,7.51
2023-03-17T08:26:41.739Z,7.55
2023-03-17T08:27:41.693Z,7.69
2023-03-17T08:28:41.707Z,7.73
2023-03-17T08:29:41.719Z,7.74
2023-03-17T08:30:41.922Z,7.71
2023-03-17T08:31:41.743Z,7.73
2023-03-17T08:32:41.705Z,7.74
2023-03-17T08:33:41.645Z,7.74
2023-03-17T08:34:41.619Z,7.71
2023-03-17T08:35:41.745Z,7.77
2023-03-17T08:36:41.607Z,7.82
2023-03-17T08:37:41.595Z,7.85
2023-03-17T08:38:41.586Z,7.86
2023-03-17T08:39:41.570Z,7.92
2023-03-17T08:40:41.552Z,7.95
2023-03-17T08:41:41.568Z,7.96
2023-03-17T08:42:41.566Z,7.95
2023-03-17T08:43:41.538Z,7.91
2023-03-17T08:44:43.938Z,7.89
2023-03-17T08:45:41.554Z,7.88
2023-03-17T08:46:41.503Z,7.88
2023-03-17T08:47:41.489Z,7.89
2023-03-17T08:48:41.498Z,7.89
2023-03-17T08:49:41.458Z,7.91
2023-03-17T08:50:41.455Z,7.89
2023-03-17T08:51:41.435Z,7.89
2023-03-17T08:52:41.428Z,7.91
2023-03-17T08:53:41.412Z,7.96
2023-03-17T08:54:41.421Z,8.02
2023-03-17T08:55:41.401Z,8.06
2023-03-17T08:56:41.385Z,8.12
2023-03-17T08:57:41.369Z,8.13
2023-03-17T08:58:41.367Z,8.12
2023-03-17T08:59:41.361Z,8.13
2023-03-17T09:00:41.391Z,8.14
2023-03-17T09:01:41.386Z,8.12
2023-03-17T09:02:41.362Z,8.12
2023-03-17T09:03:41.330Z,8.10
2023-03-17T09:04:41.315Z,8.10
2023-03-17T09:05:41.316Z,8.07
2023-03-17T09:06:51.866Z,8.07
2023-03-17T09:07:41.300Z,8.18
2023-03-17T09:08:41.266Z,8.24
2023-03-17T09:09:41.256Z,8.29
2023-03-17T09:10:44.087Z,8.36
2023-03-17T09:11:41.232Z,8.40
2023-03-17T09:12:41.231Z,8.52
2023-03-17T09:13:41.197Z,8.60
2023-03-17T09:14:44.372Z,8.64
2023-03-17T09:15:41.238Z,8.65
2023-03-17T09:16:41.162Z,8.63
2023-03-17T09:17:41.155Z,8.67
2023-03-17T09:18:41.180Z,8.68
2023-03-17T09:19:41.143Z,8.67
2023-03-17T09:20:41.119Z,8.64
2023-03-17T09:21:41.105Z,8.64
2023-03-17T09:22:41.112Z,8.61
2023-03-17T09:23:41.110Z,8.63
2023-03-17T09:24:41.083Z,8.65
2023-03-17T09:25:41.086Z,8.67
2023-03-17T09:26:41.060Z,8.71
2023-03-17T09:27:41.059Z,8.75
2023-03-17T09:28:41.052Z,8.79
2023-03-17T09:29:41.026Z,8.85
2023-03-17T09:30:41.027Z,8.85
2023-03-17T09:31:41.107Z,8.86
2023-03-17T09:32:41.067Z,8.89
2023-03-17T09:33:40.992Z,8.89
2023-03-17T09:34:40.984Z,8.94
2023-03-17T09:35:41.084Z,8.97
2023-03-17T09:36:40.955Z,9.03
2023-03-17T09:37:40.995Z,9.03
2023-03-17T09:38:40.928Z,9.04
2023-03-17T09:39:40.907Z,9.01
2023-03-17T09:40:40.918Z,8.98
2023-03-17T09:41:40.892Z,8.96
2023-03-17T09:42:40.896Z,8.93
2023-03-17T09:43:40.875Z,8.94
2023-03-17T09:44:40.884Z,8.91
2023-03-17T09:45:43.474Z,8.88
2023-03-17T09:46:40.942Z,8.96
2023-03-17T09:47:42.758Z,8.98
2023-03-17T09:48:40.858Z,8.98
2023-03-17T09:49:40.807Z,8.98
2023-03-17T09:50:40.814Z,9.01
2023-03-17T09:51:40.815Z,9.06
2023-03-17T09:52:40.773Z,9.10
2023-03-17T09:53:40.767Z,9.12
2023-03-17T09:54:40.753Z,9.08
2023-03-17T09:55:40.747Z,9.08
2023-03-17T09:56:40.750Z,9.06
2023-03-17T09:57:40.805Z,9.01
2023-03-17T09:58:40.715Z,9.00
2023-03-17T09:59:40.731Z,9.08
2023-03-17T10:00:40.700Z,9.13
2023-03-17T10:01:40.759Z,9.13
2023-03-17T10:02:40.666Z,9.13
2023-03-17T10:03:40.658Z,9.10
2023-03-17T10:04:40.654Z,9.04
2023-03-17T10:05:40.737Z,9.00
2023-03-17T10:06:40.647Z,8.97
2023-03-17T10:07:40.617Z,8.97
2023-03-17T10:08:40.609Z,8.98
2023-03-17T10:09:40.603Z,9.04
2023-03-17T10:10:40.604Z,9.16
2023-03-17T10:11:40.586Z,9.23
2023-03-17T10:12:40.572Z,9.27
2023-03-17T10:13:40.563Z,9.35
2023-03-17T10:14:40.547Z,9.35
2023-03-17T10:15:40.559Z,9.40
2023-03-17T10:16:40.532Z,9.41
2023-03-17T10:17:40.524Z,9.48
2023-03-17T10:18:40.508Z,9.48
2023-03-17T10:19:40.494Z,9.49
2023-03-17T10:20:40.484Z,9.52
2023-03-17T10:21:40.496Z,9.55
2023-03-17T10:22:40.475Z,9.59
2023-03-17T10:23:40.468Z,9.62
2023-03-17T10:24:40.439Z,9.63
2023-03-17T10:25:40.434Z,9.75
2023-03-17T10:26:40.473Z,9.80
2023-03-17T10:27:40.415Z,9.89
2023-03-17T10:28:40.416Z,9.98
2023-03-17T10:29:40.442Z,10.02
2023-03-17T10:30:40.373Z,10.04
2023-03-17T10:31:40.415Z,10.01
2023-03-17T10:32:40.433Z,9.98
2023-03-17T10:33:40.374Z,10.01
2023-03-17T10:34:40.336Z,10.04
2023-03-17T10:35:40.367Z,10.01
2023-03-17T10:36:40.318Z,9.98
2023-03-17T10:37:42.569Z,9.98
2023-03-17T10:38:40.298Z,9.98
2023-03-17T10:39:40.301Z,9.99
2023-03-17T10:40:40.276Z,9.98
2023-03-17T10:41:40.274Z,9.98
2023-03-17T10:42:40.256Z,9.96
2023-03-17T10:43:40.248Z,10.01
2023-03-17T10:44:40.251Z,10.02
2023-03-17T10:45:42.813Z,10.02
2023-03-17T10:46:40.332Z,10.02
2023-03-17T10:47:40.214Z,10.01
2023-03-17T10:48:40.194Z,10.01
2023-03-17T10:49:40.184Z,10.06
2023-03-17T10:50:40.168Z,10.09
2023-03-17T10:51:40.160Z,10.13
2023-03-17T10:52:40.165Z,10.17
2023-03-17T10:53:40.166Z,10.17
2023-03-17T10:54:40.129Z,10.17
2023-03-17T10:55:40.121Z,10.20
2023-03-17T10:56:40.147Z,10.29
2023-03-17T10:57:40.094Z,10.39
2023-03-17T10:58:40.095Z,10.44
2023-03-17T10:59:42.093Z,10.51
2023-03-17T11:00:40.114Z,10.52
2023-03-17T11:01:40.105Z,10.57
2023-03-17T11:02:40.046Z,10.55
2023-03-17T11:03:40.116Z,10.54
2023-03-17T11:04:40.073Z,10.52
2023-03-17T11:05:40.187Z,10.57
2023-03-17T11:06:40.014Z,10.60
2023-03-17T11:07:39.995Z,10.60
2023-03-17T11:08:39.977Z,10.60
2023-03-17T11:09:40.001Z,10.65
2023-03-17T11:10:39.968Z,10.68
2023-03-17T11:11:39.956Z,10.69
2023-03-17T11:12:39.965Z,10.66
2023-03-17T11:13:39.923Z,10.72
2023-03-17T11:14:39.919Z,10.70
2023-03-17T11:15:39.928Z,10.66
2023-03-17T11:16:40.025Z,10.63
2023-03-17T11:17:39.881Z,10.58
2023-03-17T11:18:39.911Z,10.60
2023-03-17T11:19:39.860Z,10.62
2023-03-17T11:20:39.851Z,10.68
2023-03-17T11:21:39.857Z,10.73
2023-03-17T11:22:39.828Z,10.76
2023-03-17T11:23:39.830Z,10.76
2023-03-17T11:24:39.804Z,10.81
2023-03-17T11:25:39.797Z,10.86
2023-03-17T11:26:39.813Z,10.87
2023-03-17T11:27:39.787Z,10.87
2023-03-17T11:28:39.758Z,10.84
2023-03-17T11:29:39.760Z,10.83
2023-03-17T11:30:39.754Z,10.86
2023-03-17T11:31:39.788Z,10.84
2023-03-17T11:32:39.784Z,10.86
2023-03-17T11:33:39.707Z,10.86
2023-03-17T11:34:39.699Z,10.84
2023-03-17T11:35:39.733Z,10.90
2023-03-17T11:36:39.674Z,10.90
2023-03-17T11:37:39.693Z,10.98
2023-03-17T11:38:39.665Z,11.01
2023-03-17T11:39:39.643Z,10.99
2023-03-17T11:40:39.630Z,10.99
2023-03-17T11:41:39.618Z,10.98
2023-03-17T11:42:39.606Z,10.94
2023-03-17T11:43:39.616Z,10.93
2023-03-17T11:44:39.578Z,10.98
2023-03-17T11:45:39.611Z,11.01
2023-03-17T11:46:39.577Z,11.06
2023-03-17T11:47:39.550Z,11.12
2023-03-17T11:48:39.565Z,11.13
2023-03-17T11:49:39.584Z,11.19
2023-03-17T11:50:39.519Z,11.16
2023-03-17T11:51:39.513Z,11.16
2023-03-17T11:52:39.492Z,11.13
2023-03-17T11:53:39.511Z,11.12
2023-03-17T11:54:39.471Z,11.11
2023-03-17T11:55:39.454Z,11.11
2023-03-17T11:56:39.443Z,11.16
2023-03-17T11:57:39.434Z,11.13
2023-03-17T11:58:39.421Z,11.09
2023-03-17T11:59:39.428Z,11.08
2023-03-17T12:00:39.406Z,11.11
2023-03-17T12:01:39.390Z,11.11
2023-03-17T12:02:39.390Z,11.16
2023-03-17T12:03:39.452Z,11.13
2023-03-17T12:04:39.427Z,11.13
2023-03-17T12:05:39.361Z,11.12
2023-03-17T12:06:39.333Z,11.16
2023-03-17T12:07:39.325Z,11.13
2023-03-17T12:08:39.306Z,11.17
2023-03-17T12:09:39.324Z,11.17
2023-03-17T12:10:39.300Z,11.16
2023-03-17T12:11:39.325Z,11.17
2023-03-17T12:12:39.260Z,11.23
2023-03-17T12:13:39.271Z,11.26
2023-03-17T12:14:39.240Z,11.30
2023-03-17T12:15:39.405Z,11.36
2023-03-17T12:16:39.215Z,11.39
2023-03-17T12:17:39.231Z,11.41
2023-03-17T12:18:39.218Z,11.38
2023-03-17T12:19:39.185Z,11.38
2023-03-17T12:20:39.171Z,11.38
2023-03-17T12:21:39.187Z,11.44
2023-03-17T12:22:39.153Z,11.48
2023-03-17T12:23:39.216Z,11.53
2023-03-17T12:24:39.158Z,11.57
2023-03-17T12:25:39.128Z,11.60
2023-03-17T12:26:39.116Z,11.69
2023-03-17T12:27:39.112Z,11.77
2023-03-17T12:28:39.084Z,11.79
2023-03-17T12:29:39.075Z,11.84
2023-03-17T12:30:39.069Z,11.96
2023-03-17T12:31:39.062Z,12.00
2023-03-17T12:32:39.119Z,11.98
2023-03-17T12:33:39.031Z,11.97
2023-03-17T12:34:39.017Z,11.94
2023-03-17T12:35:39.101Z,11.94
2023-03-17T12:36:38.992Z,11.93
2023-03-17T12:37:38.976Z,11.85
2023-03-17T12:38:38.978Z,11.81
2023-03-17T12:39:38.954Z,11.77
2023-03-17T12:40:38.949Z,11.74
2023-03-17T12:41:38.940Z,11.75
2023-03-17T12:42:38.963Z,11.75
2023-03-17T12:43:38.949Z,11.72
2023-03-17T12:44:38.905Z,11.72
2023-03-17T12:45:38.887Z,11.72
2023-03-17T12:46:38.946Z,11.70
2023-03-17T12:47:38.869Z,11.69
2023-03-17T12:48:38.879Z,11.67
2023-03-17T12:49:38.847Z,11.64
2023-03-17T12:50:38.847Z,11.60
2023-03-17T12:51:38.811Z,11.56
2023-03-17T12:52:38.813Z,11.54
2023-03-17T12:53:38.792Z,11.54
2023-03-17T12:54:38.795Z,11.54
2023-03-17T12:55:38.771Z,11.56
2023-03-17T12:56:38.767Z,11.51
2023-03-17T12:57:38.788Z,11.59
2023-03-17T12:58:38.744Z,11.62
2023-03-17T12:59:38.730Z,11.64
2023-03-17T13:00:38.729Z,11.66
2023-03-17T13:01:38.803Z,11.72
2023-03-17T13:02:38.731Z,11.79
2023-03-17T13:03:38.859Z,11.87
2023-03-17T13:04:38.676Z,11.90
2023-03-17T13:05:38.704Z,11.88
2023-03-17T13:06:38.682Z,11.88
2023-03-17T13:07:38.640Z,11.82
2023-03-17T13:08:38.645Z,11.78
2023-03-17T13:09:38.646Z,11.74
2023-03-17T13:10:38.608Z,11.72
2023-03-17T13:11:38.596Z,11.79
2023-03-17T13:12:38.589Z,11.81
2023-03-17T13:13:38.577Z,11.81